Helena, MT

6:53 PM MST on December 06, 2019 (GMT -0700)
West Side | | Change Station
Active Advisory: Winter Weather Advisory

Elev 3901 ft 46.61 °N, 112.06 °W | Updated 7 seconds ago

Partly Cloudy
Partly Cloudy
29.3 °F
Feels Like 22 °F
N
8
Wind Variable Wind from SW
Gusts 8.0 mph

Today
High -- | Low -- °F
--% Chance of Precip.
Yesterday
High -- | Low -- °F
Precip. -- in
Pressure 30.14 in
Visibility 10.0 miles
Clouds Clear
Windchill 22 °F
Dew Point 26 °F
Humidity 86%
Rainfall 0.00 in
Snow Depth Not available.
7:57 AM 4:40 PM
Waxing Gibbous, 75% visible
METAR KHLN 070053Z 26003KT 10SM CLR 01/M04 A2999 RMK AO2 SLP207 T00061044 $
Pressure 30.14 in
Visibility 10.0 miles
Clouds Clear
Windchill 22 °F
Dew Point 26 °F
Humidity 86%
Rainfall 0.00 in
Snow Depth Not available.
7:57 AM 4:40 PM
Waxing Gibbous, 75% visible
METAR KHLN 070053Z 26003KT 10SM CLR 01/M04 A2999 RMK AO2 SLP207 T00061044 $

Get Your Daily Forecast Email!

Thanks for signing up!

Be on the lookout for a verification email in your inbox.

You'll start receiving severe weather alerts in your inbox..

×

10-Day Weather Forecast

Almanac

Astronomy

Dec. 06, 2019 Rise Set
Actual Time
Civil Twilight
Nautical Twilight
Astronomical Twilight
Moon
Length of Visible Light
Length of Day
Tomorrow will be .
, % of the Moon is Illuminated

Today's Extremes

State Highs State Lows

Community

WunderPhotos

Category 6

Welcome to Category 6. This is the collective home for Weather Underground's featured writeups by Dr. Jeff Masters (right), Bob Henson (left), Chris Burt, and other regular contributors.

Nearby

Air Quality

  Air Quality AQ Index Pollutant
Not available.

Snow Depth

Station Depth Elevation

Earthquake Activity

City Distance Mag. Time & Date
Minimum magnitude displayed is 2.5.

Coastal Water Temperatures

Place Temperature

Stations

Nearby Weather Stations

Station Location Temp. Windchill Dew Point Humidity Wind Precip. Elev Updated Type
                   

Watches & Warnings

Winter Weather Advisory
Issued: 9:34 AM MST Dec. 6, 2019 – National Weather Service

... Winter Weather Advisory in effect from 3 am to 6 PM MST
Sunday...

* what... snow expected. Total snow accumulations of 1 to 2 inches
at lower elevations, with up to 5 inches in the mountains and
over Rogers and MacDonald Pass.

* Where... central and southern Lewis And Clark, Jefferson and
Broadwater counties.

* When... from 3 am to 6 PM MST Sunday.

* Impacts... plan on slippery Road conditions. Patchy blowing snow
could significantly reduce visibility.

Precautionary/preparedness actions...

Slow down and use caution while traveling.

The latest Road conditions for the state you are calling from can
be obtained by calling 5 1 1.


Moldan